»·PEaware :: N1169D KHHR-KPSP

N1169D :: KHHR-KPSP

FLIGHT INFORMATION

Flight Status: Arrived
Operator: Privately registered:
United States
More flights under this callsign
Pilot: Sean L. (31034)
Aircraft: CIRRUS SR-22
(SR22)
More flights by this aircraft type
Origin: KHHR Northrop/Hawthorne Mun
United States
Destination: KPSP Palm Springs Intl
United States
More flights between these airports :: More routes between these airports
Route:
File this flight plan on PilotEdge
Remarks:
Altitude:
(Current/Filed)
5,500ft
Speed:
(Current/Filed)
0kts
Departed: 12-Jan-21 12:15 PM
Arrived: 12-Jan-21 01:42 PM
Distance/Time
Traveled:
92nm/1:26
Distance/Time
To Go:
Arrived

Flight Plot

Page will automatically refresh every two minutes.

Flight plan parsing failed; only flown route is shown


Map Options




Map Legend


Flown Route
Filed Route
Departure Airport
Arrival Airport
Navaid (VOR, NDB)
Fix

Horizontal Profiles

Position Reports

Time Latitude Longitude Heading Altitude Ground
Speed
12-Jan-21 12:07 33.923196 -118.340025 5 66ft 0kts
12-Jan-21 12:08 33.923196 -118.340025 5 66ft 0kts
12-Jan-21 12:09 33.923196 -118.340025 5 66ft 0kts
12-Jan-21 12:10 33.923198 -118.340024 6 66ft 0kts
12-Jan-21 12:11 33.923206 -118.336375 88 65ft 24kts
12-Jan-21 12:12 33.923290 -118.331482 179 65ft 5kts
12-Jan-21 12:13 33.922742 -118.327580 82 63ft 16kts
12-Jan-21 12:13 33.922834 -118.327335 22 63ft 0kts
12-Jan-21 12:15 33.923079 -118.330306 260 64ft 59kts
12-Jan-21 12:15 33.917275 -118.357628 202 866ft 123kts
12-Jan-21 12:17 33.890442 -118.332385 100 3136ft 104kts
12-Jan-21 12:17 33.885805 -118.302065 117 4505ft 123kts
12-Jan-21 12:18 33.869519 -118.264800 117 5966ft 149kts
12-Jan-21 12:20 33.840419 -118.194988 116 4473ft 197kts
12-Jan-21 12:20 33.821353 -118.147869 116 4766ft 188kts
12-Jan-21 12:21 33.812268 -118.125663 116 4807ft 189kts
12-Jan-21 12:22 33.922479 -118.328310 245 63ft 0kts
12-Jan-21 12:23 33.922479 -118.328310 245 63ft 0kts
12-Jan-21 12:24 33.922479 -118.328310 245 63ft 0kts
12-Jan-21 12:25 33.922479 -118.328310 245 63ft 0kts
12-Jan-21 12:26 33.922479 -118.328310 245 63ft 0kts
12-Jan-21 12:27 33.922479 -118.328310 245 63ft 0kts
12-Jan-21 12:28 33.922479 -118.328310 245 63ft 0kts
12-Jan-21 12:29 33.922479 -118.328310 245 63ft 0kts
12-Jan-21 12:30 33.922479 -118.328310 245 63ft 0kts
12-Jan-21 12:31 33.922479 -118.328310 245 63ft 0kts
12-Jan-21 12:32 33.922479 -118.328310 245 63ft 0kts
12-Jan-21 12:33 33.922479 -118.328310 245 63ft 0kts
12-Jan-21 12:34 33.922479 -118.328310 245 63ft 0kts
12-Jan-21 12:35 33.922479 -118.328310 245 63ft 0kts
12-Jan-21 12:36 33.922479 -118.328310 245 63ft 0kts
12-Jan-21 12:37 33.922479 -118.328310 245 63ft 0kts
12-Jan-21 12:38 33.922479 -118.328310 245 63ft 0kts
12-Jan-21 12:39 33.922479 -118.328310 245 63ft 0kts
12-Jan-21 12:40 33.922479 -118.328310 245 63ft 0kts
12-Jan-21 12:41 33.922479 -118.328310 245 63ft 0kts
12-Jan-21 12:42 33.922479 -118.328310 245 63ft 0kts
12-Jan-21 12:43 33.922479 -118.328310 245 63ft 0kts
12-Jan-21 12:44 33.922479 -118.328310 245 63ft 0kts
12-Jan-21 12:45 33.922479 -118.328310 245 63ft 0kts
12-Jan-21 12:46 33.922479 -118.328310 245 63ft 0kts
12-Jan-21 12:47 33.922479 -118.328310 245 63ft 0kts
12-Jan-21 12:48 33.922479 -118.328310 245 63ft 0kts
12-Jan-21 12:49 33.922479 -118.328310 245 63ft 0kts
12-Jan-21 12:50 33.922479 -118.328310 245 63ft 0kts
12-Jan-21 12:51 33.922479 -118.328310 245 63ft 0kts
12-Jan-21 12:52 33.922479 -118.328310 245 63ft 0kts
12-Jan-21 12:53 33.922479 -118.328310 245 63ft 0kts
12-Jan-21 12:54 33.922479 -118.328310 245 63ft 0kts
12-Jan-21 12:55 33.922479 -118.328310 245 63ft 0kts
12-Jan-21 12:56 33.922479 -118.328310 245 63ft 0kts
12-Jan-21 12:57 33.922479 -118.328310 245 63ft 0kts
12-Jan-21 12:58 33.922479 -118.328310 245 63ft 0kts
12-Jan-21 12:59 33.922479 -118.328310 245 63ft 0kts
12-Jan-21 13:00 33.922615 -118.328065 94 63ft 12kts
12-Jan-21 13:01 33.922831 -118.327227 20 63ft 0kts
12-Jan-21 13:02 33.922628 -118.343449 265 369ft 119kts
12-Jan-21 13:03 33.900299 -118.341673 113 1851ft 141kts
12-Jan-21 13:04 33.882190 -118.297296 115 3112ft 152kts
12-Jan-21 13:05 33.860788 -118.244952 116 3190ft 186kts
12-Jan-21 13:06 33.837718 -118.188460 116 3188ft 188kts
12-Jan-21 13:07 33.814569 -118.131728 116 3188ft 189kts
12-Jan-21 13:08 33.791499 -118.075075 115 3188ft 189kts
12-Jan-21 13:09 33.804363 -118.018147 68 3754ft 170kts
12-Jan-21 13:10 33.819153 -117.962982 74 4190ft 184kts
12-Jan-21 13:11 33.832062 -117.906921 74 4188ft 168kts
12-Jan-21 13:12 33.844541 -117.852864 74 4188ft 167kts
12-Jan-21 13:13 33.856942 -117.799075 74 4188ft 167kts
12-Jan-21 13:14 33.869363 -117.745105 74 4188ft 167kts
12-Jan-21 13:15 33.881757 -117.691136 74 4188ft 167kts
12-Jan-21 13:16 33.884771 -117.639040 107 4628ft 153kts
12-Jan-21 13:17 33.877367 -117.588943 87 5056ft 154kts
12-Jan-21 13:18 33.878174 -117.536631 92 5368ft 158kts
12-Jan-21 13:19 33.873054 -117.482810 91 5459ft 166kts
12-Jan-21 13:20 33.871659 -117.426102 91 5340ft 173kts
12-Jan-21 13:21 33.873846 -117.368053 80 5188ft 170kts
12-Jan-21 13:22 33.881461 -117.311967 80 5188ft 169kts
12-Jan-21 13:23 33.889051 -117.256373 80 5188ft 168kts
12-Jan-21 13:24 33.896081 -117.200429 86 5188ft 168kts
12-Jan-21 13:25 33.900141 -117.144171 84 5188ft 168kts
12-Jan-21 13:26 33.904498 -117.087913 84 5188ft 168kts
12-Jan-21 13:27 33.908828 -117.031667 84 5188ft 168kts
12-Jan-21 13:28 33.913145 -116.975276 84 5188ft 168kts
12-Jan-21 13:29 33.917425 -116.919036 84 5188ft 168kts
12-Jan-21 13:30 33.921696 -116.862610 84 5113ft 173kts
12-Jan-21 13:31 33.924827 -116.803105 86 4621ft 180kts
12-Jan-21 13:32 33.926656 -116.743112 89 4219ft 178kts
12-Jan-21 13:33 33.925273 -116.683646 93 3819ft 177kts
12-Jan-21 13:34 33.919684 -116.624608 98 3417ft 177kts
12-Jan-21 13:35 33.904883 -116.566952 114 2753ft 179kts
12-Jan-21 13:36 33.876452 -116.517464 128 2089ft 179kts
12-Jan-21 13:37 33.842308 -116.475472 133 1658ft 173kts
12-Jan-21 13:38 33.815321 -116.456275 220 1388ft 104kts
12-Jan-21 13:39 33.809948 -116.481913 283 879ft 87kts
12-Jan-21 13:40 33.826366 -116.501871 321 421ft 66kts
12-Jan-21 13:41 33.831690 -116.505982 42 432ft 0kts
12-Jan-21 13:43 33.830763 -116.504773 134 429ft 10kts
12-Jan-21 13:44 33.828251 -116.502531 143 422ft 15kts
12-Jan-21 13:45 33.824801 -116.499027 102 407ft 12kts
12-Jan-21 13:46 33.824407 -116.498449 148 405ft 0kts
12-Jan-21 13:47 33.824407 -116.498449 148 405ft 0kts
12-Jan-21 13:48 33.824407 -116.498449 148 405ft 0kts
12-Jan-21 13:49 33.824407 -116.498449 148 405ft 0kts
12-Jan-21 13:50 33.824407 -116.498449 148 405ft 0kts
12-Jan-21 13:51 33.824407 -116.498449 148 405ft 0kts
12-Jan-21 13:52 33.824407 -116.498449 148 405ft 0kts
12-Jan-21 13:53 33.824407 -116.498449 148 405ft 0kts
12-Jan-21 13:54 33.824407 -116.498449 148 405ft 0kts
12-Jan-21 13:55 33.824407 -116.498449 148 405ft 0kts
12-Jan-21 13:56 33.824407 -116.498449 148 405ft 0kts

Navigation Log

Ident Type
Flight plan parsing failed, navigation log unavailable